Time;durP1;ratioP1;P1;durP2;ratioP2;P2;SDS_P1;SDS_P2;PMS_P1;PMS_P2;Temp;Humidity;BMP_temperature;BMP_pressure;BME280_temperature;BME280_humidity;BME280_pressure;Samples;Min_cycle;Max_cycle;Signal;HPM_P1;HPM_P2
2023/12/20 00:01:14;;;;;;;23.80;15.20;;;;;;;-147.86;100.00;46266.79;106013;1254;64636;-56
2023/12/20 00:03:41;;;;;;;27.20;13.60;;;;;;;-147.86;100.00;46266.79;106050;1251;72673;-51
2023/12/20 00:06:09;;;;;;;21.20;13.70;;;;;;;-147.86;100.00;46267.96;106059;1250;61801;-52
2023/12/20 00:08:37;;;;;;;26.90;15.40;;;;;;;-147.86;100.00;46269.52;105986;1250;60421;-55
2023/12/20 00:11:04;;;;;;;27.60;13.90;;;;;;;-147.86;100.00;46271.49;105969;1251;73675;-49
2023/12/20 00:13:30;;;;;;;25.80;14.60;;;;;;;-147.86;100.00;46268.74;106023;1254;64146;-52
2023/12/20 00:15:57;;;;;;;23.60;14.60;;;;;;;-147.86;100.00;46267.57;106020;1251;72554;-50
2023/12/20 00:18:24;;;;;;;28.40;13.90;;;;;;;-147.86;100.00;46264.82;105957;1251;61087;-53
2023/12/20 00:20:51;;;;;;;25.00;13.50;;;;;;;-147.86;100.00;46268.35;105978;1250;60389;-51
2023/12/20 00:23:18;;;;;;;22.70;13.70;;;;;;;-147.86;100.00;46262.87;105959;1251;73670;-52
2023/12/20 00:25:45;;;;;;;23.90;15.10;;;;;;;-147.86;100.00;46265.22;106011;1250;64536;-54
2023/12/20 00:28:12;;;;;;;24.80;15.50;;;;;;;-147.86;100.00;46265.61;106042;1250;72453;-48
2023/12/20 00:30:39;;;;;;;24.30;15.40;;;;;;;-147.86;100.00;46264.83;105976;1251;60395;-49
2023/12/20 00:33:06;;;;;;;29.70;16.00;;;;;;;-147.86;100.00;46262.86;105978;1251;60417;-51
2023/12/20 00:35:33;;;;;;;21.40;14.50;;;;;;;-147.86;100.00;46262.48;105949;1254;73806;-53
2023/12/20 00:38:00;;;;;;;24.90;15.30;;;;;;;-147.86;100.00;46264.43;105974;1254;64717;-46
2023/12/20 00:40:27;;;;;;;23.70;14.70;;;;;;;-147.86;100.00;46260.12;105899;1251;72650;-50
2023/12/20 00:42:53;;;;;;;25.50;15.90;;;;;;;-147.86;100.00;46260.52;106037;1251;61998;-51
2023/12/20 00:45:20;;;;;;;28.30;15.70;;;;;;;-147.86;100.00;46260.51;105953;1254;61069;-48
2023/12/20 00:47:47;;;;;;;26.30;16.20;;;;;;;-147.86;100.00;46261.69;105959;1251;73639;-51
2023/12/20 00:50:15;;;;;;;29.40;16.00;;;;;;;-147.86;100.00;46260.12;106022;1254;64650;-47
2023/12/20 00:52:42;;;;;;;29.60;15.70;;;;;;;-147.86;100.00;46259.34;106004;1250;72674;-54
2023/12/20 00:55:09;;;;;;;24.00;15.10;;;;;;;-147.86;100.00;46256.59;105949;1254;61953;-50
2023/12/20 00:57:36;;;;;;;26.80;14.80;;;;;;;-147.86;100.00;46257.38;106024;1250;60332;-48
2023/12/20 01:00:04;;;;;;;22.10;14.40;;;;;;;-147.86;100.00;46255.41;105998;1250;73808;-51
2023/12/20 01:02:31;;;;;;;28.70;16.30;;;;;;;-147.86;100.00;46254.24;106025;1254;64641;-54
2023/12/20 01:06:09;;;;;;;27.60;17.30;;;;;;;-147.86;100.00;46215.84;102537;1293;614855;-52
2023/12/20 01:08:37;;;;;;;26.90;16.10;;;;;;;-147.86;100.00;46267.57;104969;1267;59379;-55
2023/12/20 01:11:05;;;;;;;25.10;16.10;;;;;;;-147.86;100.00;46262.48;104765;1268;60290;-47
2023/12/20 01:13:32;;;;;;;27.90;17.40;;;;;;;-147.86;100.00;46259.73;104888;1269;72266;-53
2023/12/20 01:15:59;;;;;;;31.00;16.90;;;;;;;-147.86;100.00;46256.99;105058;1269;64464;-48
2023/12/20 01:18:26;;;;;;;25.00;16.60;;;;;;;-147.86;100.00;46251.89;104861;1263;204384;-56
2023/12/20 01:20:53;;;;;;;26.40;16.60;;;;;;;-147.86;100.00;46253.46;105255;1267;60348;-54
2023/12/20 01:23:20;;;;;;;32.90;18.70;;;;;;;-147.86;100.00;46250.72;105270;1263;60267;-52
2023/12/20 01:25:48;;;;;;;29.30;17.30;;;;;;;-147.86;100.00;46249.15;105151;1266;72125;-50
2023/12/20 01:28:15;;;;;;;33.00;18.50;;;;;;;-147.86;100.00;46247.19;105223;1267;64523;-49
2023/12/20 01:30:42;;;;;;;26.50;16.90;;;;;;;-147.86;100.00;46246.80;105214;1263;72654;-50
2023/12/20 01:33:09;;;;;;;33.10;17.90;;;;;;;-147.86;100.00;46244.45;105195;1266;60891;-47
2023/12/20 01:35:37;;;;;;;26.30;16.10;;;;;;;-147.86;100.00;46245.23;105200;1264;60253;-51
2023/12/20 01:38:04;;;;;;;32.70;16.90;;;;;;;-147.86;100.00;46245.23;105215;1264;71970;-50
2023/12/20 01:40:30;;;;;;;34.10;17.90;;;;;;;-147.86;100.00;46243.27;105238;1267;64704;-47
2023/12/20 01:43:01;;;;;;;28.00;17.50;;;;;;;-147.86;100.00;46240.92;105203;1263;72631;-50
2023/12/20 01:45:29;;;;;;;30.70;18.70;;;;;;;-147.86;100.00;46240.14;105201;1263;61208;-51
2023/12/20 01:47:57;;;;;;;30.80;18.80;;;;;;;-147.86;100.00;46239.35;105216;1264;60119;-47
2023/12/20 01:50:24;;;;;;;30.60;19.10;;;;;;;-147.86;100.00;46238.18;105219;1269;71189;-50
2023/12/20 01:52:52;;;;;;;32.00;18.40;;;;;;;-147.86;100.00;46236.22;105128;1268;64592;-50
2023/12/20 01:55:19;;;;;;;28.50;18.00;;;;;;;-147.86;100.00;46234.26;105164;1264;72618;-50
2023/12/20 01:57:47;;;;;;;28.40;17.40;;;;;;;-147.86;100.00;46231.91;105188;1269;62064;-50
2023/12/20 02:00:15;;;;;;;33.10;18.20;;;;;;;-147.86;100.00;46231.52;104841;1264;60291;-51
2023/12/20 02:02:42;;;;;;;31.90;18.40;;;;;;;-147.86;100.00;46232.70;105161;1264;73006;-50
2023/12/20 02:05:09;;;;;;;31.60;18.60;;;;;;;-147.86;100.00;46231.51;104927;1270;64575;-49
2023/12/20 02:07:36;;;;;;;28.20;18.60;;;;;;;-147.86;100.00;46230.34;104818;1264;72530;-48
2023/12/20 02:10:04;;;;;;;30.40;17.40;;;;;;;-147.86;100.00;46227.20;105106;1270;61198;-52
2023/12/20 02:12:31;;;;;;;29.80;17.70;;;;;;;-147.86;100.00;46227.99;105155;1269;59611;-45
2023/12/20 02:14:58;;;;;;;28.20;17.40;;;;;;;-147.86;100.00;46223.29;105240;1263;73129;-50
2023/12/20 02:17:25;;;;;;;31.00;18.10;;;;;;;-147.86;100.00;46223.68;105160;1269;64830;-48
2023/12/20 02:19:52;;;;;;;33.10;18.00;;;;;;;-147.86;100.00;46222.11;105144;1266;72621;-50
2023/12/20 02:22:19;;;;;;;33.70;19.30;;;;;;;-147.86;100.00;46222.50;105128;1269;60422;-51
2023/12/20 02:24:46;;;;;;;34.10;19.00;;;;;;;-147.86;100.00;46220.93;105212;1269;60188;-48
2023/12/20 02:27:13;;;;;;;32.80;19.50;;;;;;;-147.86;100.00;46218.58;105132;1264;72938;-49
2023/12/20 02:29:39;;;;;;;31.70;19.20;;;;;;;-147.86;100.00;46218.19;104838;1270;64543;-52
2023/12/20 02:32:06;;;;;;;31.50;19.30;;;;;;;-147.86;100.00;46217.02;105137;1266;72685;-46
2023/12/20 02:34:33;;;;;;;30.80;18.90;;;;;;;-147.86;100.00;46215.84;105107;1269;61159;-49
2023/12/20 02:37:00;;;;;;;36.30;20.20;;;;;;;-147.86;100.00;46214.27;105109;1267;60009;-50
2023/12/20 02:39:27;;;;;;;33.70;19.20;;;;;;;-147.86;100.00;46214.66;105120;1267;72991;-50
2023/12/20 02:41:54;;;;;;;35.10;19.40;;;;;;;-147.86;100.00;46213.10;105099;1269;64644;-53
2023/12/20 02:44:21;;;;;;;32.30;20.00;;;;;;;-147.86;100.00;46212.70;105128;1268;71515;-52
2023/12/20 02:46:49;;;;;;;34.00;20.30;;;;;;;-147.86;100.00;46210.35;105105;1267;61213;-51
2023/12/20 02:49:16;;;;;;;32.10;19.70;;;;;;;-147.86;100.00;46208.40;105180;1267;60128;-50
2023/12/20 02:51:44;;;;;;;35.50;19.70;;;;;;;-147.86;100.00;46206.83;105150;1265;71602;-50
2023/12/20 02:54:11;;;;;;;31.70;20.40;;;;;;;-147.86;100.00;46209.96;105120;1269;64741;-51
2023/12/20 02:56:38;;;;;;;35.30;20.80;;;;;;;-147.86;100.00;46203.30;105175;1264;72508;-52
2023/12/20 02:59:05;;;;;;;34.20;19.80;;;;;;;-147.86;100.00;46204.87;105154;1269;60570;-50
2023/12/20 03:01:32;;;;;;;33.00;20.00;;;;;;;-147.86;100.00;46202.13;105132;1267;60125;-52
2023/12/20 03:03:59;;;;;;;36.30;19.20;;;;;;;-147.86;100.00;46202.13;105185;1269;72908;-50
2023/12/20 03:06:26;;;;;;;37.90;21.20;;;;;;;-147.86;100.00;46197.42;105123;1269;64743;-51
2023/12/20 03:08:53;;;;;;;33.10;20.80;;;;;;;-147.86;100.00;46197.81;105072;1267;72549;-50
2023/12/20 03:11:20;;;;;;;37.30;20.90;;;;;;;-147.86;100.00;46193.90;105118;1269;61945;-51
2023/12/20 03:13:47;;;;;;;40.10;21.20;;;;;;;-147.86;100.00;46192.73;105120;1264;60578;-50
2023/12/20 03:16:16;;;;;;;39.20;20.00;;;;;;;-147.86;100.00;46189.59;105109;1269;72911;-53
2023/12/20 03:18:43;;;;;;;35.20;20.30;;;;;;;-147.86;100.00;46189.59;105216;1267;64669;-47
2023/12/20 03:21:10;;;;;;;33.10;19.50;;;;;;;-147.86;100.00;46184.10;105131;1266;72642;-51
2023/12/20 03:23:37;;;;;;;32.20;20.00;;;;;;;-147.86;100.00;46182.93;105106;1269;61049;-49
2023/12/20 03:26:03;;;;;;;29.40;18.40;;;;;;;-147.86;100.00;46182.53;105093;1264;60181;-50
2023/12/20 03:28:30;;;;;;;39.60;20.00;;;;;;;-147.86;100.00;46182.53;104807;1264;73053;-49
2023/12/20 03:30:57;;;;;;;34.50;20.30;;;;;;;-147.86;100.00;46182.14;105181;1264;65130;-52
2023/12/20 03:33:24;;;;;;;32.80;20.80;;;;;;;-147.86;100.00;46180.18;105184;1267;72581;-53
2023/12/20 03:35:51;;;;;;;35.80;21.20;;;;;;;-147.86;100.00;46174.30;105172;1269;61119;-51
2023/12/20 03:38:18;;;;;;;32.00;19.90;;;;;;;-147.86;100.00;46174.69;105178;1267;60032;-47
2023/12/20 03:40:44;;;;;;;40.80;21.80;;;;;;;-147.86;100.00;46174.69;105126;1264;73514;-50
2023/12/20 03:43:11;;;;;;;35.60;20.50;;;;;;;-147.86;100.00;46170.38;105712;1259;64654;-49
2023/12/20 03:45:38;;;;;;;38.90;21.00;;;;;;;-147.86;100.00;46167.64;105635;1257;72629;-50
2023/12/20 03:48:06;;;;;;;34.30;20.50;;;;;;;-147.86;100.00;46168.43;105601;1259;61818;-52
2023/12/20 03:50:32;;;;;;;38.80;21.00;;;;;;;-147.86;100.00;46165.29;105660;1256;60294;-51
2023/12/20 03:52:59;;;;;;;38.60;21.20;;;;;;;-147.86;100.00;46166.86;105652;1257;73417;-53
2023/12/20 03:55:26;;;;;;;34.50;19.50;;;;;;;-147.86;100.00;46161.76;105626;1256;64720;-52
2023/12/20 03:57:53;;;;;;;35.90;20.30;;;;;;;-147.86;100.00;46162.94;105684;1257;72488;-52
2023/12/20 04:00:20;;;;;;;33.40;19.70;;;;;;;-147.86;100.00;46160.58;105649;1259;61130;-48
2023/12/20 04:02:47;;;;;;;37.50;18.60;;;;;;;-147.86;100.00;46161.76;105628;1255;60344;-50
2023/12/20 04:05:14;;;;;;;39.00;20.20;;;;;;;-147.86;100.00;46160.59;105756;1253;72942;-48
2023/12/20 04:07:41;;;;;;;35.50;19.10;;;;;;;-147.86;100.00;46159.02;105905;1257;64677;-48
2023/12/20 04:10:08;;;;;;;32.60;19.30;;;;;;;-147.86;100.00;46159.80;105802;1254;72502;-51
2023/12/20 04:12:36;;;;;;;34.30;19.40;;;;;;;-147.86;100.00;46157.84;105780;1257;63011;-50
2023/12/20 04:15:08;;;;;;;35.60;21.20;;;;;;;-147.86;100.00;46157.45;105952;1254;60307;-50
2023/12/20 04:17:36;;;;;;;43.00;20.20;;;;;;;-147.86;100.00;46154.32;105811;1254;72018;-49
2023/12/20 04:20:03;;;;;;;33.70;20.10;;;;;;;-147.86;100.00;46154.71;105843;1257;65168;-50
2023/12/20 04:22:30;;;;;;;34.60;19.30;;;;;;;-147.86;100.00;46151.18;105826;1257;72931;-52
2023/12/20 04:24:57;;;;;;;31.70;18.60;;;;;;;-147.86;100.00;46150.40;105817;1257;61575;-49
2023/12/20 04:27:24;;;;;;;31.60;18.80;;;;;;;-147.86;100.00;46150.79;105798;1253;60171;-48
2023/12/20 04:29:51;;;;;;;32.70;17.40;;;;;;;-147.86;100.00;46150.79;105784;1253;73004;-50
2023/12/20 04:32:18;;;;;;;29.90;18.90;;;;;;;-147.86;100.00;46150.01;105824;1257;64631;-47
2023/12/20 04:34:45;;;;;;;31.20;18.70;;;;;;;-147.86;100.00;46151.96;105815;1254;72630;-54
2023/12/20 04:37:12;;;;;;;34.40;20.00;;;;;;;-147.86;100.00;46150.39;105809;1257;60369;-50
2023/12/20 04:39:40;;;;;;;31.50;19.30;;;;;;;-147.86;100.00;46150.01;106021;1254;60238;-49
2023/12/20 04:42:07;;;;;;;31.70;19.50;;;;;;;-147.86;100.00;46150.79;105829;1254;73032;-52
2023/12/20 04:44:34;;;;;;;32.60;18.80;;;;;;;-147.86;100.00;46150.39;105924;1257;64704;-49
2023/12/20 04:47:01;;;;;;;34.10;19.50;;;;;;;-147.86;100.00;46151.57;105794;1254;72688;-50
2023/12/20 04:49:29;;;;;;;31.30;19.20;;;;;;;-147.86;100.00;46150.01;105876;1257;61730;-54
2023/12/20 04:51:56;;;;;;;33.20;19.70;;;;;;;-147.86;100.00;46152.36;105858;1254;60297;-52
2023/12/20 04:54:23;;;;;;;37.20;19.20;;;;;;;-147.86;100.00;46150.79;105825;1257;72995;-50
2023/12/20 04:56:50;;;;;;;35.50;18.80;;;;;;;-147.86;100.00;46150.79;105793;1257;64670;-52
2023/12/20 04:59:18;;;;;;;38.00;19.60;;;;;;;-147.86;100.00;46152.75;105916;1254;72723;-50
2023/12/20 05:01:45;;;;;;;34.10;19.70;;;;;;;-147.86;100.00;46151.96;105761;1256;60131;-47
2023/12/20 05:04:12;;;;;;;31.40;18.70;;;;;;;-147.86;100.00;46152.36;105724;1256;59609;-50
2023/12/20 05:06:39;;;;;;;27.90;18.40;;;;;;;-147.86;100.00;46152.75;105795;1257;72972;-55
2023/12/20 05:09:07;;;;;;;32.30;19.20;;;;;;;-147.86;100.00;46152.36;105775;1258;64499;-52
2023/12/20 05:11:34;;;;;;;33.00;17.80;;;;;;;-147.86;100.00;46151.18;105817;1257;72500;-49
2023/12/20 05:14:00;;;;;;;30.60;19.00;;;;;;;-147.86;100.00;46151.18;105784;1257;60423;-49
2023/12/20 05:16:27;;;;;;;35.80;19.30;;;;;;;-147.86;100.00;46153.93;105860;1253;60517;-53
2023/12/20 05:18:54;;;;;;;37.20;19.30;;;;;;;-147.86;100.00;46152.36;105822;1254;73780;-48
2023/12/20 05:21:21;;;;;;;33.70;19.80;;;;;;;-147.86;100.00;46154.32;105815;1254;64534;-55
2023/12/20 05:23:48;;;;;;;36.50;18.70;;;;;;;-147.86;100.00;46155.10;105801;1254;72583;-49
2023/12/20 05:26:15;;;;;;;29.10;17.70;;;;;;;-147.86;100.00;46153.93;105762;1253;61144;-51
2023/12/20 05:28:42;;;;;;;30.90;18.00;;;;;;;-147.86;100.00;46155.10;105746;1253;60393;-49
2023/12/20 05:31:09;;;;;;;30.70;18.70;;;;;;;-147.86;100.00;46155.10;105783;1253;73848;-49
2023/12/20 05:33:36;;;;;;;33.50;17.80;;;;;;;-147.86;100.00;46157.06;105812;1258;65454;-49
2023/12/20 05:36:03;;;;;;;33.10;17.10;;;;;;;-147.86;100.00;46155.10;105800;1253;72523;-52
2023/12/20 05:38:30;;;;;;;29.00;17.20;;;;;;;-147.86;100.00;46157.06;105779;1254;61877;-51
2023/12/20 05:40:57;;;;;;;27.30;17.50;;;;;;;-147.86;100.00;46159.02;105743;1254;60450;-52
2023/12/20 05:43:24;;;;;;;31.40;17.70;;;;;;;-147.86;100.00;46160.20;105809;1257;72802;-49
2023/12/20 05:45:51;;;;;;;30.60;17.50;;;;;;;-147.86;100.00;46164.50;105787;1257;64639;-52
2023/12/20 05:48:18;;;;;;;31.60;18.70;;;;;;;-147.86;100.00;46166.46;105756;1254;71722;-47
2023/12/20 05:50:45;;;;;;;28.90;17.50;;;;;;;-147.86;100.00;46167.64;105855;1257;61119;-51
2023/12/20 05:53:12;;;;;;;27.10;16.70;;;;;;;-147.86;100.00;46169.60;105787;1254;60421;-50
2023/12/20 05:55:39;;;;;;;31.20;17.30;;;;;;;-147.86;100.00;46171.16;105823;1253;74170;-51
2023/12/20 05:58:06;;;;;;;28.90;17.20;;;;;;;-147.86;100.00;46175.09;105834;1257;65054;-48
2023/12/20 06:00:33;;;;;;;27.10;16.10;;;;;;;-147.86;100.00;46173.13;105799;1254;72484;-49
2023/12/20 06:03:00;;;;;;;29.00;16.40;;;;;;;-147.86;100.00;46175.87;105800;1257;61954;-50
2023/12/20 06:05:26;;;;;;;25.90;16.50;;;;;;;-147.86;100.00;46178.22;105792;1254;60348;-50
2023/12/20 06:07:54;;;;;;;25.00;16.90;;;;;;;-147.86;100.00;46182.92;105767;1254;73865;-50
2023/12/20 06:10:22;;;;;;;29.80;17.30;;;;;;;-147.86;100.00;46187.63;105791;1253;63365;-50
2023/12/20 06:12:51;;;;;;;28.90;17.20;;;;;;;-147.86;100.00;46189.20;105745;1254;72646;-51
2023/12/20 06:15:17;;;;;;;29.80;16.30;;;;;;;-147.86;100.00;46194.68;105953;1253;61096;-51
2023/12/20 06:17:44;;;;;;;29.80;16.30;;;;;;;-147.86;100.00;46194.29;105819;1254;60447;-48
2023/12/20 06:20:13;;;;;;;28.30;16.80;;;;;;;-147.86;100.00;46199.38;105783;1254;73934;-52
2023/12/20 06:22:40;;;;;;;28.70;16.00;;;;;;;-147.86;100.00;46203.30;105853;1257;64538;-50
2023/12/20 06:25:07;;;;;;;27.70;16.30;;;;;;;-147.86;100.00;46204.87;105740;1253;72481;-55
2023/12/20 06:27:34;;;;;;;30.60;15.90;;;;;;;-147.86;100.00;46208.00;105807;1253;60421;-51
2023/12/20 06:30:01;;;;;;;28.50;15.80;;;;;;;-147.86;100.00;46208.79;105784;1254;60457;-51
2023/12/20 06:32:29;;;;;;;26.20;15.20;;;;;;;-147.86;100.00;46212.31;105752;1257;73850;-51
2023/12/20 06:34:56;;;;;;;23.70;15.30;;;;;;;-147.86;100.00;46216.62;105786;1257;64688;-51
2023/12/20 06:37:23;;;;;;;26.90;15.50;;;;;;;-147.86;100.00;46216.63;105756;1254;72589;-49
2023/12/20 06:39:50;;;;;;;28.20;15.90;;;;;;;-147.86;100.00;46218.59;105810;1257;61130;-48
2023/12/20 06:42:17;;;;;;;24.80;14.40;;;;;;;-147.86;100.00;46221.72;105784;1253;60485;-49
2023/12/20 06:44:44;;;;;;;20.50;14.00;;;;;;;-147.86;100.00;46226.81;105821;1253;74074;-50
2023/12/20 06:47:10;;;;;;;26.50;14.20;;;;;;;-147.86;100.00;46231.12;105796;1257;64520;-52
2023/12/20 06:49:37;;;;;;;27.30;14.30;;;;;;;-147.86;100.00;46230.73;105626;1254;71803;-52
2023/12/20 06:52:04;;;;;;;23.00;13.70;;;;;;;-147.86;100.00;46233.47;105564;1256;61836;-50
2023/12/20 06:54:34;;;;;;;22.80;13.80;;;;;;;-147.86;100.00;46232.69;105713;1254;60531;-51
2023/12/20 06:57:02;;;;;;;28.20;14.90;;;;;;;-147.86;100.00;46238.57;105755;1254;73660;-56
2023/12/20 06:59:29;;;;;;;23.90;14.90;;;;;;;-147.86;100.00;46244.45;105793;1257;64709;-54
2023/12/20 07:01:56;;;;;;;26.60;14.20;;;;;;;-147.86;100.00;46242.88;105789;1253;72599;-50
2023/12/20 07:04:23;;;;;;;25.40;14.40;;;;;;;-147.86;100.00;46248.36;105746;1253;61549;-48
2023/12/20 07:06:57;;;;;;;23.40;13.10;;;;;;;-147.86;100.00;46248.76;105793;1254;60536;-48
2023/12/20 07:09:24;;;;;;;21.10;13.30;;;;;;;-147.86;100.00;46251.11;105729;1255;73780;-53
2023/12/20 07:11:52;;;;;;;22.10;13.00;;;;;;;-147.86;100.00;46253.46;105791;1257;65493;-45
2023/12/20 07:14:19;;;;;;;25.40;13.90;;;;;;;-147.86;100.00;46255.03;105911;1253;72397;-52
2023/12/20 07:16:46;;;;;;;25.80;13.50;;;;;;;-147.86;100.00;46258.95;105717;1253;61026;-48
2023/12/20 07:19:13;;;;;;;25.80;12.80;;;;;;;-147.86;100.00;46258.55;105948;1254;60450;-51
2023/12/20 07:21:40;;;;;;;21.60;12.60;;;;;;;-147.86;100.00;46260.12;105765;1257;73860;-46
2023/12/20 07:24:07;;;;;;;22.90;12.90;;;;;;;-147.86;100.00;46265.61;105750;1253;64651;-48
2023/12/20 07:26:35;;;;;;;19.00;12.60;;;;;;;-147.86;100.00;46265.61;105824;1253;72681;-52
2023/12/20 07:29:04;;;;;;;21.80;13.30;;;;;;;-147.86;100.00;46265.22;105856;1257;60367;-52
2023/12/20 07:31:30;;;;;;;21.90;13.30;;;;;;;-147.86;100.00;46267.57;105791;1254;60537;-49
2023/12/20 07:33:57;;;;;;;18.80;11.40;;;;;;;-147.86;100.00;46267.18;105760;1257;73801;-49
2023/12/20 07:36:24;;;;;;;21.30;12.20;;;;;;;-147.86;100.00;46262.87;105738;1253;65450;-48
2023/12/20 07:38:51;;;;;;;19.00;11.50;;;;;;;-147.86;100.00;46260.51;105803;1254;72697;-47
2023/12/20 07:41:21;;;;;;;17.50;11.30;;;;;;;-147.86;100.00;46253.07;105844;1254;60382;-46
2023/12/20 07:43:47;;;;;;;20.60;12.60;;;;;;;-147.86;100.00;46250.32;105805;1254;60457;-51
2023/12/20 07:46:14;;;;;;;17.50;11.80;;;;;;;-147.86;100.00;46253.85;105768;1257;73833;-50
2023/12/20 07:48:42;;;;;;;19.20;12.40;;;;;;;-147.86;100.00;46246.80;105800;1257;64546;-46
2023/12/20 07:51:12;;;;;;;18.80;11.70;;;;;;;-147.86;100.00;46246.80;105801;1254;71203;-50
2023/12/20 07:53:39;;;;;;;20.10;11.80;;;;;;;-147.86;100.00;46247.98;105829;1256;61977;-52
2023/12/20 07:56:16;;;;;;;20.20;11.90;;;;;;;-147.86;100.00;46243.66;105821;1254;60459;-47
2023/12/20 07:58:43;;;;;;;21.50;12.10;;;;;;;-147.86;100.00;46240.92;105811;1254;73873;-52
2023/12/20 08:01:19;;;;;;;26.50;11.90;;;;;;;-147.86;100.00;46236.61;105767;1257;63164;-46
2023/12/20 08:03:46;;;;;;;18.80;12.10;;;;;;;-147.86;100.00;46234.26;105764;1254;72871;-55
2023/12/20 08:06:14;;;;;;;15.90;10.20;;;;;;;-147.86;100.00;46231.91;105785;1254;61638;-49
2023/12/20 08:08:41;;;;;;;19.50;11.90;;;;;;;-147.86;100.00;46232.30;105799;1254;60412;-52
2023/12/20 08:11:10;;;;;;;24.10;13.30;;;;;;;-147.86;100.00;46229.55;105779;1257;73851;-52
2023/12/20 08:13:37;;;;;;;21.60;11.30;;;;;;;-147.86;100.00;46227.59;105776;1257;64574;-51
2023/12/20 08:16:04;;;;;;;24.00;12.20;;;;;;;-147.86;100.00;46227.20;105776;1254;72508;-48
2023/12/20 08:18:33;;;;;;;18.40;11.70;;;;;;;-147.86;100.00;46229.55;105825;1254;62082;-47
2023/12/20 08:21:01;;;;;;;18.70;12.10;;;;;;;-147.86;100.00;46228.38;105845;1254;60419;-50
2023/12/20 08:23:28;;;;;;;20.30;12.40;;;;;;;-147.86;100.00;46230.73;105778;1254;73860;-50
2023/12/20 08:25:58;;;;;;;21.30;13.20;;;;;;;-147.86;100.00;46230.34;105744;1258;64610;-49
2023/12/20 08:28:25;;;;;;;19.20;12.20;;;;;;;-147.86;100.00;46227.60;105771;1254;71756;-48
2023/12/20 08:30:53;;;;;;;20.30;11.90;;;;;;;-147.86;100.00;46232.30;105767;1257;61268;-51
2023/12/20 08:33:20;;;;;;;21.00;12.80;;;;;;;-147.86;100.00;46233.87;105827;1253;60430;-53
2023/12/20 08:35:48;;;;;;;24.70;12.80;;;;;;;-147.86;100.00;46236.61;105774;1254;73799;-53
2023/12/20 08:38:15;;;;;;;19.10;13.00;;;;;;;-147.86;100.00;46235.04;105796;1256;64644;-52
2023/12/20 08:40:42;;;;;;;20.90;12.90;;;;;;;-147.86;100.00;46237.00;105806;1254;72557;-50
2023/12/20 08:43:09;;;;;;;21.50;13.20;;;;;;;-147.86;100.00;46237.39;105769;1257;60525;-50
2023/12/20 08:45:36;;;;;;;20.70;12.80;;;;;;;-147.86;100.00;46238.57;105785;1254;60533;-52
2023/12/20 08:48:03;;;;;;;21.40;11.90;;;;;;;-147.86;100.00;46241.70;105770;1257;75427;-50
2023/12/20 08:50:34;;;;;;;20.40;13.00;;;;;;;-147.86;100.00;46238.96;105856;1257;65030;-53
2023/12/20 08:53:01;;;;;;;22.50;13.10;;;;;;;-147.86;100.00;46239.75;105850;1254;72684;-54
2023/12/20 08:55:30;;;;;;;22.40;12.80;;;;;;;-147.86;100.00;46239.36;105759;1254;62351;-48
2023/12/20 08:57:58;;;;;;;22.30;12.10;;;;;;;-147.86;100.00;46236.61;105832;1254;61970;-53
2023/12/20 09:00:27;;;;;;;20.40;12.50;;;;;;;-147.86;100.00;46238.96;105935;1254;75310;-55
2023/12/20 09:02:54;;;;;;;19.50;12.30;;;;;;;-147.86;100.00;46237.00;105785;1257;64483;-48
2023/12/20 09:05:22;;;;;;;24.90;13.60;;;;;;;-147.86;100.00;46238.96;105827;1254;74406;-51
2023/12/20 09:07:49;;;;;;;20.50;13.70;;;;;;;-147.86;100.00;46236.61;105848;1258;63815;-49
2023/12/20 09:10:21;;;;;;;20.70;11.70;;;;;;;-147.86;100.00;46234.65;105803;1254;60430;-51
2023/12/20 09:12:50;;;;;;;20.00;12.40;;;;;;;-147.86;100.00;46229.55;105791;1257;75213;-50
2023/12/20 09:15:17;;;;;;;21.10;12.80;;;;;;;-147.86;100.00;46223.68;105816;1254;65159;-52
2023/12/20 09:17:44;;;;;;;19.80;12.70;;;;;;;-147.86;100.00;46226.42;105822;1254;72491;-50
2023/12/20 09:20:13;;;;;;;18.10;11.80;;;;;;;-147.86;100.00;46226.81;105807;1257;60574;-49
2023/12/20 09:22:41;;;;;;;20.40;12.60;;;;;;;-147.86;100.00;46224.85;105821;1254;60502;-50
2023/12/20 09:25:10;;;;;;;18.50;12.50;;;;;;;-147.86;100.00;46218.59;105779;1257;73855;-51
2023/12/20 09:27:37;;;;;;;16.90;11.50;;;;;;;-147.86;100.00;46215.84;105809;1257;64552;-52
2023/12/20 09:30:05;;;;;;;19.00;11.50;;;;;;;-147.86;100.00;46213.49;105758;1254;72596;-52
2023/12/20 09:32:32;;;;;;;24.90;13.10;;;;;;;-147.86;100.00;46211.14;105832;1254;60424;-48
2023/12/20 09:35:00;;;;;;;21.10;12.90;;;;;;;-147.86;100.00;46209.57;105801;1254;61579;-50
2023/12/20 09:37:28;;;;;;;18.30;11.50;;;;;;;-147.86;100.00;46206.83;105786;1257;75602;-50
2023/12/20 09:39:55;;;;;;;19.90;11.80;;;;;;;-147.86;100.00;46207.61;105893;1257;64653;-47
2023/12/20 09:42:33;;;;;;;18.40;12.20;;;;;;;-147.86;100.00;46203.69;105829;1254;74837;-49
2023/12/20 09:45:00;;;;;;;18.90;12.50;;;;;;;-147.86;100.00;46205.26;105774;1256;61791;-53
2023/12/20 09:47:28;;;;;;;19.40;12.00;;;;;;;-147.86;100.00;46203.69;105715;1254;60543;-52
2023/12/20 09:49:55;;;;;;;17.80;11.70;;;;;;;-147.86;100.00;46203.70;105763;1257;73840;-51
2023/12/20 09:52:23;;;;;;;16.30;10.90;;;;;;;-147.86;100.00;46202.91;105679;1261;66415;-55
2023/12/20 09:54:50;;;;;;;18.50;11.80;;;;;;;-147.86;100.00;46200.17;105657;1254;72865;-50
2023/12/20 09:57:17;;;;;;;20.10;12.50;;;;;;;-147.86;100.00;46196.25;105682;1261;62045;-52
2023/12/20 09:59:44;;;;;;;15.20;11.40;;;;;;;-147.86;100.00;46189.98;105875;1254;60482;-47
2023/12/20 10:02:14;;;;;;;15.50;9.90;;;;;;;-147.86;100.00;46189.20;105818;1254;72767;-49
2023/12/20 10:04:47;;;;;;;18.30;11.00;;;;;;;-147.86;100.00;46191.54;105806;1259;63332;-50
2023/12/20 10:07:15;;;;;;;19.80;11.00;;;;;;;-147.86;100.00;46189.98;105801;1257;71166;-52
2023/12/20 10:09:42;;;;;;;16.40;11.20;;;;;;;-147.86;100.00;46189.20;105805;1257;60468;-48
2023/12/20 10:12:09;;;;;;;17.60;10.30;;;;;;;-147.86;100.00;46183.71;105817;1254;60537;-52
2023/12/20 10:14:38;;;;;;;14.00;9.80;;;;;;;-147.86;100.00;46180.96;105769;1257;73670;-52
2023/12/20 10:17:05;;;;;;;16.00;9.90;;;;;;;-147.86;100.00;46175.48;105661;1253;64535;-50
2023/12/20 10:19:33;;;;;;;15.30;10.50;;;;;;;-147.86;100.00;46169.60;105902;1257;74309;-50
2023/12/20 10:22:00;;;;;;;13.30;9.40;;;;;;;-147.86;100.00;46163.72;105860;1258;60407;-50
2023/12/20 10:24:30;;;;;;;16.10;10.20;;;;;;;-147.86;100.00;46160.20;105804;1254;61780;-52
2023/12/20 10:27:04;;;;;;;12.90;9.60;;;;;;;-147.86;100.00;46155.88;105801;1254;73786;-54
2023/12/20 10:29:33;;;;;;;12.00;9.10;;;;;;;-147.86;100.00;46154.32;105913;1254;66649;-53
2023/12/20 10:32:24;;;;;;;13.60;9.20;;;;;;;-147.86;100.00;46153.53;105838;1259;72700;-47
2023/12/20 10:34:54;;;;;;;15.50;9.70;;;;;;;-147.86;100.00;46151.18;105855;1257;61037;-51
2023/12/20 10:37:22;;;;;;;12.60;9.30;;;;;;;-147.86;100.00;46145.70;105865;1257;61031;-52
2023/12/20 10:39:51;;;;;;;15.50;9.10;;;;;;;-147.86;100.00;46142.95;105805;1257;76204;-49
2023/12/20 10:42:20;;;;;;;13.00;9.10;;;;;;;-147.86;100.00;46139.43;105837;1257;63800;-50
2023/12/20 10:44:47;;;;;;;14.80;9.20;;;;;;;-147.86;100.00;46138.64;105696;1254;72658;-49
2023/12/20 10:47:14;;;;;;;13.40;9.20;;;;;;;-147.86;100.00;46133.16;105795;1258;61388;-50
2023/12/20 10:49:41;;;;;;;14.00;9.20;;;;;;;-147.86;100.00;46124.93;105654;1254;60492;-47